createdAt,value
2019-03-04T00:00:52.137Z,942.39
2019-03-04T00:01:52.122Z,942.25
2019-03-04T00:02:52.109Z,942.38
2019-03-04T00:03:52.095Z,942.32
2019-03-04T00:04:52.082Z,942.39
2019-03-04T00:05:52.068Z,942.21
2019-03-04T00:06:52.059Z,942.25
2019-03-04T00:07:52.043Z,942.18
2019-03-04T00:08:52.030Z,942.24
2019-03-04T00:09:52.018Z,942.17
2019-03-04T00:10:52.003Z,942.33
2019-03-04T00:11:51.990Z,942.24
2019-03-04T00:12:51.977Z,942.21
2019-03-04T00:13:51.964Z,942.22
2019-03-04T00:14:51.951Z,942.24
2019-03-04T00:15:51.938Z,942.19
2019-03-04T00:16:51.925Z,942.14
2019-03-04T00:17:51.911Z,942.13
2019-03-04T00:18:51.898Z,942.14
2019-03-04T00:19:51.886Z,942.18
2019-03-04T00:20:51.872Z,942.21
2019-03-04T00:21:51.859Z,942.18
2019-03-04T00:22:51.847Z,942.1
2019-03-04T00:23:51.832Z,942.13
2019-03-04T00:24:51.819Z,942.2
2019-03-04T00:25:51.926Z,942.12
2019-03-04T00:26:51.795Z,942.11
2019-03-04T00:27:51.781Z,942.2
2019-03-04T00:28:51.768Z,942.2
2019-03-04T00:29:51.755Z,942.2
2019-03-04T00:30:51.755Z,942.17
2019-03-04T00:31:51.730Z,942.15
2019-03-04T00:32:51.715Z,942.16
2019-03-04T00:33:51.702Z,942.04
2019-03-04T00:34:51.689Z,942.03
2019-03-04T00:35:51.685Z,942.09
2019-03-04T00:36:51.663Z,942.03
2019-03-04T00:37:51.650Z,942.17
2019-03-04T00:38:51.638Z,942.07
2019-03-04T00:39:51.624Z,942.08
2019-03-04T00:40:51.610Z,942.06
2019-03-04T00:41:51.597Z,942.05
2019-03-04T00:42:51.585Z,941.89
2019-03-04T00:43:51.572Z,941.97
2019-03-04T00:44:51.560Z,941.96
2019-03-04T00:45:51.547Z,941.9
2019-03-04T00:46:51.533Z,941.91
2019-03-04T00:47:51.520Z,941.94
2019-03-04T00:48:51.508Z,941.79
2019-03-04T00:49:51.493Z,941.74
2019-03-04T00:50:51.485Z,941.79
2019-03-04T00:51:51.468Z,941.72
2019-03-04T00:52:51.454Z,941.67
2019-03-04T00:53:51.441Z,941.6
2019-03-04T00:54:51.430Z,941.48
2019-03-04T00:55:51.417Z,941.37
2019-03-04T00:56:51.402Z,941.36
2019-03-04T00:57:51.391Z,941.3
2019-03-04T00:58:51.378Z,941.36
2019-03-04T00:59:51.364Z,941.41
2019-03-04T01:00:51.352Z,941.41
2019-03-04T01:01:51.339Z,941.47
2019-03-04T01:02:51.327Z,941.41
2019-03-04T01:03:51.312Z,941.46
2019-03-04T01:04:51.300Z,941.49
2019-03-04T01:05:51.288Z,941.45
2019-03-04T01:06:51.273Z,941.44
2019-03-04T01:07:51.259Z,941.41
2019-03-04T01:08:51.247Z,941.39
2019-03-04T01:09:51.234Z,941.4
2019-03-04T01:10:51.220Z,941.37
2019-03-04T01:11:51.207Z,941.41
2019-03-04T01:12:51.195Z,941.27
2019-03-04T01:13:51.181Z,941.3
2019-03-04T01:14:51.168Z,941.19
2019-03-04T01:15:51.155Z,941.25
2019-03-04T01:16:51.193Z,941.21
2019-03-04T01:17:51.130Z,941.16
2019-03-04T01:18:51.114Z,941.2
2019-03-04T01:19:51.103Z,941.07
2019-03-04T01:20:51.090Z,941.02
2019-03-04T01:21:51.078Z,941.04
2019-03-04T01:22:51.063Z,941.07
2019-03-04T01:23:51.578Z,941.06
2019-03-04T01:24:51.038Z,941.1
2019-03-04T01:25:51.023Z,941.16
2019-03-04T01:26:51.012Z,941.07
2019-03-04T01:27:50.997Z,941.1
2019-03-04T01:28:50.986Z,941.02
2019-03-04T01:29:50.969Z,941.02
2019-03-04T01:30:50.956Z,941.05
2019-03-04T01:31:50.943Z,941.04
2019-03-04T01:32:50.933Z,941.04
2019-03-04T01:33:50.918Z,941.05
2019-03-04T01:34:50.907Z,941.09
2019-03-04T01:35:50.894Z,941.17
2019-03-04T01:36:50.883Z,941.16
2019-03-04T01:37:50.869Z,941.19
2019-03-04T01:38:50.858Z,941.26
2019-03-04T01:39:50.839Z,941.18
2019-03-04T01:40:50.824Z,941.19
2019-03-04T01:41:50.812Z,941.11
2019-03-04T01:42:50.798Z,941.17
2019-03-04T01:43:50.783Z,941.14
2019-03-04T01:44:50.770Z,941.2
2019-03-04T01:45:50.759Z,941.16
2019-03-04T01:46:50.746Z,941.16
2019-03-04T01:47:50.730Z,941.06
2019-03-04T01:48:50.717Z,941.08
2019-03-04T01:49:50.705Z,941.03
2019-03-04T01:50:50.691Z,941.06
2019-03-04T01:51:50.687Z,941.07
2019-03-04T01:52:50.664Z,941.14
2019-03-04T01:53:50.651Z,941.02
2019-03-04T01:54:50.637Z,941.03
2019-03-04T01:55:50.624Z,941.03
2019-03-04T01:56:50.609Z,941.03
2019-03-04T01:57:50.596Z,940.99
2019-03-04T01:58:50.583Z,940.96
2019-03-04T01:59:50.570Z,940.92
2019-03-04T02:00:50.557Z,940.84
2019-03-04T02:01:50.546Z,940.82
2019-03-04T02:02:50.529Z,940.98
2019-03-04T02:03:50.516Z,940.89
2019-03-04T02:04:50.562Z,940.88
2019-03-04T02:05:50.490Z,940.89
2019-03-04T02:06:50.476Z,940.96
2019-03-04T02:07:50.468Z,940.91
2019-03-04T02:08:50.449Z,940.92
2019-03-04T02:09:50.436Z,940.93
2019-03-04T02:10:50.422Z,940.87
2019-03-04T02:11:50.409Z,940.97
2019-03-04T02:12:50.395Z,940.94
2019-03-04T02:13:51.395Z,940.95
2019-03-04T02:14:50.370Z,940.93
2019-03-04T02:15:50.357Z,940.89
2019-03-04T02:16:50.346Z,940.85
2019-03-04T02:17:50.328Z,940.79
2019-03-04T02:18:50.317Z,940.64
2019-03-04T02:19:50.303Z,940.64
2019-03-04T02:20:50.288Z,940.58
2019-03-04T02:21:50.277Z,940.49
2019-03-04T02:22:50.277Z,940.45
2019-03-04T02:23:50.249Z,940.45
2019-03-04T02:24:50.236Z,940.38
2019-03-04T02:25:50.224Z,940.3
2019-03-04T02:26:50.214Z,940.17
2019-03-04T02:27:50.196Z,940.16
2019-03-04T02:28:50.185Z,939.94
2019-03-04T02:29:50.171Z,939.96
2019-03-04T02:30:50.162Z,940
2019-03-04T02:31:50.145Z,939.97
2019-03-04T02:32:50.135Z,939.88
2019-03-04T02:33:50.118Z,939.83
2019-03-04T02:34:50.125Z,939.77
2019-03-04T02:35:50.093Z,939.72
2019-03-04T02:36:50.079Z,939.71
2019-03-04T02:37:50.067Z,939.7
2019-03-04T02:38:50.053Z,939.66
2019-03-04T02:39:50.039Z,939.71
2019-03-04T02:40:50.027Z,939.63
2019-03-04T02:41:50.017Z,939.7
2019-03-04T02:42:50.000Z,939.66
2019-03-04T02:43:49.988Z,939.65
2019-03-04T02:44:49.974Z,939.73
2019-03-04T02:45:49.965Z,939.8
2019-03-04T02:46:49.949Z,939.7
2019-03-04T02:47:49.934Z,939.62
2019-03-04T02:48:49.923Z,939.68
2019-03-04T02:49:49.907Z,939.66
2019-03-04T02:50:49.893Z,939.61
2019-03-04T02:51:49.881Z,939.74
2019-03-04T02:52:49.868Z,939.79
2019-03-04T02:53:49.853Z,939.76
2019-03-04T02:54:49.840Z,939.65
2019-03-04T02:55:49.830Z,939.72
2019-03-04T02:56:49.818Z,939.65
2019-03-04T02:57:49.802Z,939.62
2019-03-04T02:58:49.788Z,939.61
2019-03-04T02:59:49.777Z,939.62
2019-03-04T03:00:49.764Z,939.6
2019-03-04T03:01:49.750Z,939.61
2019-03-04T03:02:49.744Z,939.64
2019-03-04T03:03:49.724Z,939.63
2019-03-04T03:04:49.714Z,939.6
2019-03-04T03:05:49.697Z,939.63
2019-03-04T03:06:49.683Z,939.67
2019-03-04T03:07:49.671Z,939.62
2019-03-04T03:08:49.659Z,939.6
2019-03-04T03:09:49.644Z,939.58
2019-03-04T03:10:49.634Z,939.6
2019-03-04T03:11:49.618Z,939.61
2019-03-04T03:12:49.631Z,939.7
2019-03-04T03:13:49.593Z,939.8
2019-03-04T03:14:49.581Z,939.83
2019-03-04T03:15:49.566Z,939.83
2019-03-04T03:16:49.554Z,939.85
2019-03-04T03:17:49.540Z,939.78
2019-03-04T03:18:49.527Z,939.81
2019-03-04T03:19:49.518Z,939.87
2019-03-04T03:20:49.502Z,939.85
2019-03-04T03:21:49.489Z,939.93
2019-03-04T03:22:49.474Z,939.84
2019-03-04T03:23:49.462Z,939.8
2019-03-04T03:24:49.448Z,939.82
2019-03-04T03:25:49.435Z,939.77
2019-03-04T03:26:49.425Z,939.68
2019-03-04T03:27:49.423Z,939.74
2019-03-04T03:28:49.396Z,939.76
2019-03-04T03:29:51.923Z,939.8
2019-03-04T03:30:49.397Z,939.76
2019-03-04T03:31:49.357Z,939.66
2019-03-04T03:32:49.347Z,939.61
2019-03-04T03:33:49.330Z,939.6
2019-03-04T03:34:49.318Z,939.65
2019-03-04T03:35:49.304Z,939.69
2019-03-04T03:36:49.292Z,939.66
2019-03-04T03:37:49.279Z,939.62
2019-03-04T03:38:49.263Z,939.67
2019-03-04T03:39:49.252Z,939.53
2019-03-04T03:40:49.238Z,939.56
2019-03-04T03:41:49.225Z,939.57
2019-03-04T03:42:49.225Z,939.54
2019-03-04T03:43:49.200Z,939.62
2019-03-04T03:44:49.185Z,939.45
2019-03-04T03:45:49.173Z,939.4
2019-03-04T03:46:49.162Z,939.32
2019-03-04T03:47:49.148Z,939.32
2019-03-04T03:48:49.133Z,939.29
2019-03-04T03:49:49.122Z,939.2
2019-03-04T03:50:49.109Z,939.25
2019-03-04T03:51:49.094Z,939.16
2019-03-04T03:52:49.084Z,939.3
2019-03-04T03:53:49.071Z,939.17
2019-03-04T03:54:49.059Z,939.21
2019-03-04T03:55:49.044Z,939.13
2019-03-04T03:56:49.029Z,939.05
2019-03-04T03:57:49.015Z,939.05
2019-03-04T03:58:49.004Z,939.06
2019-03-04T03:59:48.992Z,939.01
2019-03-04T04:00:48.979Z,939.04
2019-03-04T04:01:48.963Z,938.94
2019-03-04T04:02:48.952Z,938.93
2019-03-04T04:03:48.937Z,938.84
2019-03-04T04:04:48.924Z,938.85
2019-03-04T04:05:48.912Z,938.87
2019-03-04T04:06:48.905Z,938.77
2019-03-04T04:07:48.885Z,938.8
2019-03-04T04:08:48.875Z,938.7
2019-03-04T04:09:48.859Z,938.71
2019-03-04T04:10:48.847Z,938.64
2019-03-04T04:11:48.832Z,938.61
2019-03-04T04:12:48.822Z,938.54
2019-03-04T04:13:48.808Z,938.62
2019-03-04T04:14:48.794Z,938.51
2019-03-04T04:15:48.780Z,938.51
2019-03-04T04:16:48.770Z,938.53
2019-03-04T04:17:48.757Z,938.52
2019-03-04T04:18:48.746Z,938.55
2019-03-04T04:19:48.731Z,938.43
2019-03-04T04:20:48.717Z,938.5
2019-03-04T04:21:48.702Z,938.46
2019-03-04T04:22:48.692Z,938.44
2019-03-04T04:23:48.678Z,938.44
2019-03-04T04:24:48.663Z,938.42
2019-03-04T04:25:48.652Z,938.44
2019-03-04T04:26:48.638Z,938.39
2019-03-04T04:27:48.627Z,938.44
2019-03-04T04:28:48.612Z,938.31
2019-03-04T04:29:48.599Z,938.39
2019-03-04T04:30:48.590Z,938.36
2019-03-04T04:31:48.573Z,938.42
2019-03-04T04:32:48.566Z,938.42
2019-03-04T04:33:48.552Z,938.4
2019-03-04T04:34:48.558Z,938.42
2019-03-04T04:35:48.526Z,938.41
2019-03-04T04:36:48.510Z,938.39
2019-03-04T04:37:48.497Z,938.41
2019-03-04T04:38:48.484Z,938.45
2019-03-04T04:39:48.476Z,938.29
2019-03-04T04:40:48.460Z,938.37
2019-03-04T04:41:48.446Z,938.37
2019-03-04T04:42:48.434Z,938.46
2019-03-04T04:43:48.421Z,938.46
2019-03-04T04:44:48.409Z,938.48
2019-03-04T04:45:48.401Z,938.41
2019-03-04T04:46:48.386Z,938.37
2019-03-04T04:47:48.373Z,938.28
2019-03-04T04:48:48.358Z,938.31
2019-03-04T04:49:48.347Z,938.35
2019-03-04T04:50:48.333Z,938.3
2019-03-04T04:51:48.319Z,938.35
2019-03-04T04:52:48.308Z,938.32
2019-03-04T04:53:48.295Z,938.37
2019-03-04T04:54:48.282Z,938.28
2019-03-04T04:55:48.270Z,938.34
2019-03-04T04:56:48.257Z,938.36
2019-03-04T04:57:48.244Z,938.33
2019-03-04T04:58:48.232Z,938.29
2019-03-04T04:59:48.219Z,938.29
2019-03-04T05:00:48.208Z,938.27
2019-03-04T05:01:48.195Z,938.29
2019-03-04T05:02:48.182Z,938.27
2019-03-04T05:03:48.170Z,938.33
2019-03-04T05:04:48.160Z,938.32
2019-03-04T05:05:48.145Z,938.34
2019-03-04T05:06:48.132Z,938.44
2019-03-04T05:07:48.125Z,938.37
2019-03-04T05:08:48.106Z,938.26
2019-03-04T05:09:48.095Z,938.39
2019-03-04T05:10:48.082Z,938.25
2019-03-04T05:11:48.071Z,938.32
2019-03-04T05:12:48.056Z,938.24
2019-03-04T05:13:48.046Z,938.28
2019-03-04T05:14:48.032Z,938.48
2019-03-04T05:15:48.020Z,938.28
2019-03-04T05:16:48.006Z,938.3
2019-03-04T05:17:47.994Z,938.3
2019-03-04T05:18:47.983Z,938.17
2019-03-04T05:19:47.970Z,938.26
2019-03-04T05:20:47.956Z,938.19
2019-03-04T05:21:47.946Z,938.06
2019-03-04T05:22:47.943Z,938.06
2019-03-04T05:23:47.920Z,937.98
2019-03-04T05:24:47.907Z,937.88
2019-03-04T05:25:47.897Z,937.67
2019-03-04T05:26:47.882Z,937.72
2019-03-04T05:27:47.869Z,937.67
2019-03-04T05:28:47.857Z,937.65
2019-03-04T05:29:47.849Z,937.66
2019-03-04T05:30:47.831Z,937.43
2019-03-04T05:31:47.832Z,937.43
2019-03-04T05:32:47.808Z,937.39
2019-03-04T05:33:47.797Z,937.44
2019-03-04T05:34:47.780Z,937.56
2019-03-04T05:35:47.771Z,937.53
2019-03-04T05:36:47.757Z,937.39
2019-03-04T05:37:47.745Z,937.45
2019-03-04T05:38:47.731Z,937.52
2019-03-04T05:39:47.718Z,937.48
2019-03-04T05:40:47.711Z,937.37
2019-03-04T05:41:47.701Z,937.2
2019-03-04T05:42:47.682Z,937.25
2019-03-04T05:43:47.669Z,937.3
2019-03-04T05:44:47.656Z,937.28
2019-03-04T05:45:47.644Z,937.26
2019-03-04T05:46:47.632Z,937.25
2019-03-04T05:47:47.620Z,937.3
2019-03-04T05:48:47.606Z,937.33
2019-03-04T05:49:47.597Z,937.32
2019-03-04T05:50:47.584Z,937.36
2019-03-04T05:51:47.569Z,937.32
2019-03-04T05:52:47.557Z,937.22
2019-03-04T05:53:47.547Z,937.21
2019-03-04T05:54:47.534Z,937.21
2019-03-04T05:55:47.522Z,937.22
2019-03-04T05:56:47.507Z,937.3
2019-03-04T05:57:47.500Z,937.29
2019-03-04T05:58:47.483Z,937.32
2019-03-04T05:59:47.469Z,937.37
2019-03-04T06:00:47.458Z,937.24
2019-03-04T06:01:47.445Z,937.34
2019-03-04T06:02:47.433Z,937.36
2019-03-04T06:03:47.420Z,937.34
2019-03-04T06:04:47.408Z,937.34
2019-03-04T06:05:47.398Z,937.4
2019-03-04T06:06:47.385Z,937.4
2019-03-04T06:07:47.371Z,937.38
2019-03-04T06:08:47.360Z,937.29
2019-03-04T06:09:47.348Z,937.37
2019-03-04T06:10:47.333Z,937.4
2019-03-04T06:11:47.321Z,937.41
2019-03-04T06:12:47.310Z,937.46
2019-03-04T06:13:47.298Z,937.5
2019-03-04T06:14:47.285Z,937.47
2019-03-04T06:15:47.274Z,937.35
2019-03-04T06:16:47.712Z,937.45
2019-03-04T06:17:47.249Z,937.43
2019-03-04T06:18:47.238Z,937.37
2019-03-04T06:19:47.224Z,937.35
2019-03-04T06:20:47.214Z,937.31
2019-03-04T06:21:47.201Z,937.28
2019-03-04T06:22:47.187Z,937.14
2019-03-04T06:23:47.175Z,937.11
2019-03-04T06:24:47.166Z,937.04
2019-03-04T06:25:47.152Z,937.03
2019-03-04T06:26:47.140Z,937.07
2019-03-04T06:27:47.129Z,937.14
2019-03-04T06:28:47.166Z,937.2
2019-03-04T06:29:47.109Z,937.16
2019-03-04T06:30:49.179Z,937.15
2019-03-04T06:31:47.079Z,937.09
2019-03-04T06:32:47.066Z,937.01
2019-03-04T06:33:47.054Z,936.93
2019-03-04T06:34:47.043Z,936.86
2019-03-04T06:35:47.032Z,936.84
2019-03-04T06:36:47.020Z,936.78
2019-03-04T06:37:47.008Z,936.68
2019-03-04T06:38:46.995Z,936.61
2019-03-04T06:39:46.985Z,936.58
2019-03-04T06:40:46.972Z,936.56
2019-03-04T06:41:46.962Z,936.62
2019-03-04T06:42:46.952Z,936.65
2019-03-04T06:43:46.936Z,936.66
2019-03-04T06:44:46.926Z,936.68
2019-03-04T06:45:46.915Z,936.66
2019-03-04T06:46:46.903Z,936.61
2019-03-04T06:47:46.890Z,936.64
2019-03-04T06:48:46.879Z,936.64
2019-03-04T06:49:46.869Z,936.65
2019-03-04T06:50:46.863Z,936.63
2019-03-04T06:51:46.846Z,936.59
2019-03-04T06:52:46.834Z,936.57
2019-03-04T06:53:46.821Z,936.51
2019-03-04T06:54:46.812Z,936.51
2019-03-04T06:55:46.798Z,936.43
2019-03-04T06:56:46.787Z,936.5
2019-03-04T06:57:46.776Z,936.47
2019-03-04T06:58:46.765Z,936.5
2019-03-04T06:59:46.752Z,936.48
2019-03-04T07:00:46.741Z,936.52
2019-03-04T07:01:46.730Z,936.54
2019-03-04T07:02:46.719Z,936.51
2019-03-04T07:03:46.709Z,936.48
2019-03-04T07:04:46.700Z,936.48
2019-03-04T07:05:46.683Z,936.47
2019-03-04T07:06:46.673Z,936.48
2019-03-04T07:07:46.662Z,936.49
2019-03-04T07:08:46.652Z,936.49
2019-03-04T07:09:46.639Z,936.43
2019-03-04T07:10:46.629Z,936.49
2019-03-04T07:11:46.619Z,936.53
2019-03-04T07:12:46.606Z,936.54
2019-03-04T07:13:46.595Z,936.57
2019-03-04T07:14:46.584Z,936.51
2019-03-04T07:15:46.573Z,936.53
2019-03-04T07:16:46.561Z,936.31
2019-03-04T07:17:46.550Z,936.31
2019-03-04T07:18:46.539Z,936.17
2019-03-04T07:19:46.529Z,936.25
2019-03-04T07:20:46.516Z,936.15
2019-03-04T07:21:46.506Z,936.09
2019-03-04T07:22:48.431Z,936
2019-03-04T07:23:46.487Z,935.87
2019-03-04T07:24:46.482Z,935.66
2019-03-04T07:25:46.461Z,935.5
2019-03-04T07:26:46.451Z,935.42
2019-03-04T07:27:46.442Z,935.34
2019-03-04T07:28:46.430Z,935.3
2019-03-04T07:29:46.419Z,935.29
2019-03-04T07:30:46.408Z,935.26
2019-03-04T07:31:46.396Z,935.21
2019-03-04T07:32:46.386Z,935.28
2019-03-04T07:33:46.380Z,935.35
2019-03-04T07:34:46.364Z,935.42
2019-03-04T07:35:46.353Z,935.41
2019-03-04T07:36:46.344Z,935.4
2019-03-04T07:37:46.333Z,935.34
2019-03-04T07:38:46.323Z,935.3
2019-03-04T07:39:46.311Z,935.26
2019-03-04T07:40:46.302Z,935.23
2019-03-04T07:41:46.291Z,935.11
2019-03-04T07:42:46.282Z,935.08
2019-03-04T07:43:46.270Z,935.04
2019-03-04T07:44:46.260Z,934.92
2019-03-04T07:45:46.250Z,934.87
2019-03-04T07:46:46.238Z,934.83
2019-03-04T07:47:46.230Z,934.8
2019-03-04T07:48:46.219Z,934.75
2019-03-04T07:49:46.209Z,934.69
2019-03-04T07:50:46.197Z,934.71
2019-03-04T07:51:46.188Z,934.72
2019-03-04T07:52:46.178Z,934.72
2019-03-04T07:53:46.877Z,934.74
2019-03-04T07:54:46.160Z,934.72
2019-03-04T07:55:46.150Z,934.74
2019-03-04T07:56:46.140Z,934.77
2019-03-04T07:57:46.128Z,934.7
2019-03-04T07:58:46.120Z,934.62
2019-03-04T07:59:46.109Z,934.64
2019-03-04T08:00:46.098Z,934.58
2019-03-04T08:01:46.090Z,934.58
2019-03-04T08:02:46.085Z,934.5
2019-03-04T08:03:46.068Z,934.49
2019-03-04T08:04:46.058Z,934.53
2019-03-04T08:05:46.049Z,934.47
2019-03-04T08:06:46.085Z,934.39
2019-03-04T08:07:46.029Z,934.41
2019-03-04T08:08:46.019Z,934.38
2019-03-04T08:09:46.009Z,934.3
2019-03-04T08:10:46.001Z,934.35
2019-03-04T08:11:45.989Z,934.38
2019-03-04T08:12:45.979Z,934.34
2019-03-04T08:13:45.971Z,934.17
2019-03-04T08:14:45.960Z,934.19
2019-03-04T08:15:45.949Z,934.18
2019-03-04T08:16:45.940Z,934.15
2019-03-04T08:17:45.930Z,934.26
2019-03-04T08:18:45.919Z,934.15
2019-03-04T08:19:45.909Z,933.97
2019-03-04T08:20:45.899Z,934.12
2019-03-04T08:21:45.889Z,934.07
2019-03-04T08:22:45.878Z,934.13
2019-03-04T08:23:45.870Z,934.03
2019-03-04T08:24:45.860Z,934.12
2019-03-04T08:25:45.847Z,934.08
2019-03-04T08:26:45.837Z,934.05
2019-03-04T08:27:45.830Z,934.11
2019-03-04T08:28:45.817Z,934.03
2019-03-04T08:29:45.807Z,933.94
2019-03-04T08:30:45.797Z,934.02
2019-03-04T08:31:45.788Z,933.99
2019-03-04T08:32:45.778Z,934.03
2019-03-04T08:33:45.767Z,933.95
2019-03-04T08:34:45.756Z,934
2019-03-04T08:35:45.746Z,933.93
2019-03-04T08:36:45.737Z,934
2019-03-04T08:37:45.727Z,934.01
2019-03-04T08:38:45.716Z,933.95
2019-03-04T08:39:45.706Z,933.98
2019-03-04T08:40:45.702Z,933.98
2019-03-04T08:41:45.687Z,934.02
2019-03-04T08:42:45.683Z,933.86
2019-03-04T08:43:45.668Z,933.99
2019-03-04T08:44:45.658Z,934.05
2019-03-04T08:45:45.648Z,933.98
2019-03-04T08:46:45.639Z,934.07
2019-03-04T08:47:45.627Z,933.88
2019-03-04T08:48:45.619Z,933.94
2019-03-04T08:49:45.609Z,933.83
2019-03-04T08:50:45.601Z,933.89
2019-03-04T08:51:45.590Z,933.9
2019-03-04T08:52:45.583Z,933.82
2019-03-04T08:53:45.571Z,933.93
2019-03-04T08:54:45.562Z,933.89
2019-03-04T08:55:45.727Z,933.87
2019-03-04T08:56:45.547Z,934.02
2019-03-04T08:57:45.536Z,933.85
2019-03-04T08:58:45.526Z,934.02
2019-03-04T08:59:45.517Z,933.9
2019-03-04T09:00:45.508Z,933.93
2019-03-04T09:01:45.499Z,933.97
2019-03-04T09:02:45.489Z,933.89
2019-03-04T09:03:45.480Z,933.94
2019-03-04T09:04:45.471Z,933.99
2019-03-04T09:05:45.463Z,934.05
2019-03-04T09:06:45.452Z,934.02
2019-03-04T09:07:45.443Z,934.02
2019-03-04T09:08:45.434Z,934.11
2019-03-04T09:09:45.424Z,934.17
2019-03-04T09:10:45.417Z,934.28
2019-03-04T09:11:45.407Z,934.3
2019-03-04T09:12:45.397Z,934.17
2019-03-04T09:13:45.390Z,934.34
2019-03-04T09:14:45.378Z,934.42
2019-03-04T09:15:45.370Z,934.38
2019-03-04T09:16:45.363Z,934.43
2019-03-04T09:17:45.351Z,934.46
2019-03-04T09:18:45.342Z,934.38
2019-03-04T09:19:45.333Z,934.31
2019-03-04T09:20:45.325Z,934.24
2019-03-04T09:21:45.315Z,934.43
2019-03-04T09:22:45.307Z,934.39
2019-03-04T09:23:45.302Z,934.36
2019-03-04T09:24:45.288Z,934.28
2019-03-04T09:25:45.281Z,934.32
2019-03-04T09:26:45.271Z,934.24
2019-03-04T09:27:45.305Z,934.23
2019-03-04T09:28:45.252Z,934.26
2019-03-04T09:29:46.749Z,934.24
2019-03-04T09:30:45.235Z,934.31
2019-03-04T09:31:45.227Z,934.42
2019-03-04T09:32:45.217Z,934.33
2019-03-04T09:33:45.210Z,934.32
2019-03-04T09:34:45.201Z,934.3
2019-03-04T09:35:45.189Z,934.57
2019-03-04T09:36:45.185Z,934.75
2019-03-04T09:37:45.171Z,934.92
2019-03-04T09:38:45.164Z,934.96
2019-03-04T09:39:45.159Z,934.99
2019-03-04T09:40:45.145Z,935.03
2019-03-04T09:41:45.134Z,934.91
2019-03-04T09:42:45.126Z,934.85
2019-03-04T09:43:45.119Z,935.04
2019-03-04T09:44:45.108Z,935.13
2019-03-04T09:45:45.099Z,934.93
2019-03-04T09:46:45.088Z,935.17
2019-03-04T09:47:45.080Z,935.24
2019-03-04T09:48:45.070Z,935.31
2019-03-04T09:49:45.062Z,935.34
2019-03-04T09:50:45.052Z,935.25
2019-03-04T09:51:45.044Z,935.13
2019-03-04T09:52:45.037Z,935.19
2019-03-04T09:53:45.025Z,935.44
2019-03-04T09:54:45.016Z,935.19
2019-03-04T09:55:45.008Z,935.08
2019-03-04T09:56:44.999Z,935.09
2019-03-04T09:57:44.988Z,934.98
2019-03-04T09:58:45.039Z,935.21
2019-03-04T09:59:46.970Z,935.14
2019-03-04T10:00:44.961Z,934.93
2019-03-04T10:01:44.952Z,935.13
2019-03-04T10:02:44.944Z,934.9
2019-03-04T10:03:44.934Z,935.03
2019-03-04T10:04:44.924Z,934.81
2019-03-04T10:05:44.915Z,934.59
2019-03-04T10:06:44.904Z,934.74
2019-03-04T10:07:44.899Z,934.41
2019-03-04T10:08:44.886Z,934.7
2019-03-04T10:09:44.877Z,934.46
2019-03-04T10:10:44.866Z,934.38
2019-03-04T10:11:44.860Z,934.4
2019-03-04T10:12:44.847Z,934.46
2019-03-04T10:13:44.837Z,934.54
2019-03-04T10:14:44.828Z,934.54
2019-03-04T10:15:44.817Z,934.69
2019-03-04T10:16:44.809Z,934.4
2019-03-04T10:17:44.799Z,934.33
2019-03-04T10:18:44.789Z,933.98
2019-03-04T10:19:44.780Z,934.17
2019-03-04T10:20:44.768Z,934.22
2019-03-04T10:21:44.760Z,934.22
2019-03-04T10:22:44.749Z,934.09
2019-03-04T10:23:44.739Z,934.26
2019-03-04T10:24:44.729Z,934.3
2019-03-04T10:25:44.720Z,934.03
2019-03-04T10:26:44.711Z,934.03
2019-03-04T10:27:44.699Z,933.92
2019-03-04T10:28:44.690Z,933.97
2019-03-04T10:29:44.680Z,934.1
2019-03-04T10:30:44.670Z,934.03
2019-03-04T10:31:44.660Z,934.2
2019-03-04T10:32:44.651Z,933.93
2019-03-04T10:33:44.638Z,934.09
2019-03-04T10:34:44.630Z,934
2019-03-04T10:35:44.620Z,934.02
2019-03-04T10:36:44.609Z,933.95
2019-03-04T10:37:44.599Z,933.99
2019-03-04T10:38:44.590Z,933.85
2019-03-04T10:39:44.580Z,934.06
2019-03-04T10:40:44.570Z,933.94
2019-03-04T10:41:44.558Z,933.95
2019-03-04T10:42:44.549Z,933.82
2019-03-04T10:43:44.539Z,933.62
2019-03-04T10:44:44.530Z,933.59
2019-03-04T10:45:44.518Z,933.67
2019-03-04T10:46:44.509Z,933.79
2019-03-04T10:47:44.500Z,933.77
2019-03-04T10:48:44.488Z,933.76
2019-03-04T10:49:44.482Z,933.57
2019-03-04T10:50:44.468Z,933.52
2019-03-04T10:51:44.460Z,933.67
2019-03-04T10:52:44.449Z,933.57
2019-03-04T10:53:44.439Z,933.54
2019-03-04T10:54:44.429Z,933.61
2019-03-04T10:55:44.420Z,933.66
2019-03-04T10:56:44.409Z,933.54
2019-03-04T10:57:44.403Z,933.51
2019-03-04T10:58:44.387Z,933.5
2019-03-04T10:59:44.376Z,933.47
2019-03-04T11:00:44.366Z,933.56
2019-03-04T11:01:44.359Z,933.68
2019-03-04T11:02:44.347Z,933.55
2019-03-04T11:03:44.338Z,933.63
2019-03-04T11:04:44.330Z,933.49
2019-03-04T11:05:44.317Z,933.36
2019-03-04T11:06:44.306Z,933.61
2019-03-04T11:07:44.297Z,933.68
2019-03-04T11:08:44.287Z,933.59
2019-03-04T11:09:44.276Z,933.58
2019-03-04T11:10:44.267Z,933.3
2019-03-04T11:11:44.257Z,933.46
2019-03-04T11:12:44.246Z,933.58
2019-03-04T11:13:44.237Z,933.81
2019-03-04T11:14:44.238Z,933.82
2019-03-04T11:15:44.216Z,933.98
2019-03-04T11:16:44.208Z,933.88
2019-03-04T11:17:44.200Z,933.83
2019-03-04T11:18:44.188Z,933.68
2019-03-04T11:19:44.178Z,933.68
2019-03-04T11:20:44.168Z,933.84
2019-03-04T11:21:44.158Z,933.69
2019-03-04T11:22:44.147Z,933.93
2019-03-04T11:23:44.138Z,933.76
2019-03-04T11:24:44.128Z,933.88
2019-03-04T11:25:44.121Z,933.89
2019-03-04T11:26:44.108Z,933.7
2019-03-04T11:27:44.103Z,933.81
2019-03-04T11:28:44.089Z,933.48
2019-03-04T11:29:44.079Z,933.66
2019-03-04T11:30:44.070Z,933.62
2019-03-04T11:31:44.059Z,933.76
2019-03-04T11:32:44.053Z,933.59
2019-03-04T11:33:44.040Z,933.8
2019-03-04T11:34:44.031Z,933.84
2019-03-04T11:35:44.021Z,933.93
2019-03-04T11:36:44.011Z,933.94
2019-03-04T11:37:44.001Z,933.99
2019-03-04T11:38:43.991Z,933.9
2019-03-04T11:39:43.981Z,933.86
2019-03-04T11:40:43.972Z,933.67
2019-03-04T11:41:43.962Z,933.51
2019-03-04T11:42:43.956Z,933.55
2019-03-04T11:43:43.941Z,933.54
2019-03-04T11:44:43.934Z,933.49
2019-03-04T11:45:43.922Z,933.65
2019-03-04T11:46:43.913Z,933.71
2019-03-04T11:47:43.902Z,933.58
2019-03-04T11:48:43.893Z,933.56
2019-03-04T11:49:43.884Z,933.51
2019-03-04T11:50:43.872Z,933.58
2019-03-04T11:51:43.863Z,933.6
2019-03-04T11:52:43.854Z,933.65
2019-03-04T11:53:43.846Z,933.64
2019-03-04T11:54:43.833Z,933.57
2019-03-04T11:55:43.824Z,933.68
2019-03-04T11:56:43.815Z,933.8
2019-03-04T11:57:43.803Z,933.75
2019-03-04T11:58:43.794Z,933.72
2019-03-04T11:59:43.785Z,933.81
2019-03-04T12:00:43.775Z,933.88
2019-03-04T12:01:43.765Z,933.8
2019-03-04T12:02:43.760Z,933.81
2019-03-04T12:03:43.748Z,933.82
2019-03-04T12:04:43.738Z,933.78
2019-03-04T12:05:43.728Z,933.75
2019-03-04T12:06:43.720Z,933.78
2019-03-04T12:07:43.709Z,933.79
2019-03-04T12:08:43.699Z,933.7
2019-03-04T12:09:43.690Z,933.73
2019-03-04T12:10:43.681Z,933.8
2019-03-04T12:11:43.673Z,933.77
2019-03-04T12:12:43.662Z,933.78
2019-03-04T12:13:43.652Z,933.64
2019-03-04T12:14:43.643Z,933.54
2019-03-04T12:15:43.633Z,933.53
2019-03-04T12:16:43.629Z,933.6
2019-03-04T12:17:43.615Z,933.66
2019-03-04T12:18:43.605Z,933.69
2019-03-04T12:19:43.595Z,933.77
2019-03-04T12:20:43.586Z,933.69
2019-03-04T12:21:43.577Z,933.83
2019-03-04T12:22:43.569Z,933.85
2019-03-04T12:23:43.559Z,933.91
2019-03-04T12:24:43.549Z,933.86
2019-03-04T12:25:43.540Z,933.88
2019-03-04T12:26:43.532Z,933.8
2019-03-04T12:27:43.521Z,933.87
2019-03-04T12:28:43.512Z,933.78
2019-03-04T12:29:43.503Z,933.77
2019-03-04T12:30:43.494Z,933.96
2019-03-04T12:31:43.487Z,933.83